createdAt,value
2018-11-12T00:00:09.719Z,1008.21
2018-11-12T00:01:09.714Z,1008.19
2018-11-12T00:02:09.703Z,1008.09
2018-11-12T00:03:09.698Z,1008.13
2018-11-12T00:04:09.691Z,1008.16
2018-11-12T00:05:09.683Z,1008.11
2018-11-12T00:06:09.679Z,1008.12
2018-11-12T00:07:09.669Z,1008.15
2018-11-12T00:08:09.656Z,1008.10
2018-11-12T00:09:09.650Z,1008.09
2018-11-12T00:10:09.643Z,1008.12
2018-11-12T00:11:09.636Z,1008.11
2018-11-12T00:12:09.632Z,1008.14
2018-11-12T00:13:09.624Z,1008.12
2018-11-12T00:14:09.616Z,1008.12
2018-11-12T00:15:09.615Z,1008.09
2018-11-12T00:16:09.598Z,1008.15
2018-11-12T00:17:09.591Z,1008.21
2018-11-12T00:18:09.587Z,1008.33
2018-11-12T00:19:09.580Z,1008.35
2018-11-12T00:20:09.573Z,1008.39
2018-11-12T00:21:09.560Z,1008.41
2018-11-12T00:22:09.553Z,1008.37
2018-11-12T00:23:09.549Z,1008.43
2018-11-12T00:24:09.545Z,1008.47
2018-11-12T00:25:09.537Z,1008.45
2018-11-12T00:26:09.530Z,1008.55
2018-11-12T00:27:09.522Z,1008.56
2018-11-12T00:28:09.511Z,1008.57
2018-11-12T00:29:09.502Z,1008.52
2018-11-12T00:30:09.495Z,1008.50
2018-11-12T00:31:09.488Z,1008.50
2018-11-12T00:32:09.484Z,1008.50
2018-11-12T00:33:09.477Z,1008.48
2018-11-12T00:34:09.467Z,1008.47
2018-11-12T00:35:09.459Z,1008.49
2018-11-12T00:36:09.454Z,1008.55
2018-11-12T00:37:09.447Z,1008.54
2018-11-12T00:38:09.441Z,1008.60
2018-11-12T00:39:09.435Z,1008.61
2018-11-12T00:40:09.422Z,1008.64
2018-11-12T00:41:09.414Z,1008.66
2018-11-12T00:42:09.407Z,1008.69
2018-11-12T00:43:09.399Z,1008.71
2018-11-12T00:44:09.397Z,1008.64
2018-11-12T00:45:09.388Z,1008.65
2018-11-12T00:46:09.383Z,1008.62
2018-11-12T00:47:09.376Z,1008.54
2018-11-12T00:48:09.363Z,1008.46
2018-11-12T00:49:09.355Z,1008.35
2018-11-12T00:50:09.352Z,1008.26
2018-11-12T00:51:09.347Z,1008.26
2018-11-12T00:52:09.334Z,1008.27
2018-11-12T00:53:09.329Z,1008.37
2018-11-12T00:54:09.319Z,1008.33
2018-11-12T00:55:09.311Z,1008.39
2018-11-12T00:56:09.308Z,1008.43
2018-11-12T00:57:09.301Z,1008.45
2018-11-12T00:58:09.294Z,1008.43
2018-11-12T00:59:09.288Z,1008.43
2018-11-12T01:00:09.273Z,1008.38
2018-11-12T01:01:09.266Z,1008.35
2018-11-12T01:02:09.259Z,1008.31
2018-11-12T01:03:09.253Z,1008.31
2018-11-12T01:04:09.406Z,1008.22
2018-11-12T01:05:09.240Z,1008.23
2018-11-12T01:06:09.230Z,1008.14
2018-11-12T01:07:09.222Z,1008.11
2018-11-12T01:08:09.223Z,1008.15
2018-11-12T01:09:09.211Z,1008.15
2018-11-12T01:10:09.204Z,1008.08
2018-11-12T01:11:09.195Z,1008.10
2018-11-12T01:12:09.183Z,1008.16
2018-11-12T01:13:09.175Z,1008.08
2018-11-12T01:14:09.169Z,1008.16
2018-11-12T01:15:09.160Z,1008.20
2018-11-12T01:16:09.172Z,1008.30
2018-11-12T01:17:09.150Z,1008.37
2018-11-12T01:18:09.143Z,1008.40
2018-11-12T01:19:09.134Z,1008.41
2018-11-12T01:20:09.124Z,1008.43
2018-11-12T01:21:09.116Z,1008.43
2018-11-12T01:22:09.114Z,1008.54
2018-11-12T01:23:09.106Z,1008.61
2018-11-12T01:24:09.094Z,1008.59
2018-11-12T01:25:09.084Z,1008.56
2018-11-12T01:26:09.078Z,1008.58
2018-11-12T01:27:09.071Z,1008.60
2018-11-12T01:28:09.065Z,1008.53
2018-11-12T01:29:09.062Z,1008.56
2018-11-12T01:30:09.051Z,1008.53
2018-11-12T01:31:09.043Z,1008.55
2018-11-12T01:32:09.030Z,1008.58
2018-11-12T01:33:09.026Z,1008.57
2018-11-12T01:34:09.017Z,1008.51
2018-11-12T01:35:09.008Z,1008.51
2018-11-12T01:36:09.005Z,1008.45
2018-11-12T01:37:08.998Z,1008.52
2018-11-12T01:38:08.985Z,1008.48
2018-11-12T01:39:08.979Z,1008.46
2018-11-12T01:40:08.975Z,1008.52
2018-11-12T01:41:08.976Z,1008.54
2018-11-12T01:42:09.031Z,1008.61
2018-11-12T01:43:08.952Z,1008.61
2018-11-12T01:44:08.939Z,1008.64
2018-11-12T01:45:08.931Z,1008.71
2018-11-12T01:46:08.925Z,1008.76
2018-11-12T01:47:08.918Z,1008.78
2018-11-12T01:48:08.912Z,1008.74
2018-11-12T01:49:08.905Z,1008.67
2018-11-12T01:50:08.899Z,1008.66
2018-11-12T01:51:08.898Z,1008.65
2018-11-12T01:52:08.881Z,1008.59
2018-11-12T01:53:08.872Z,1008.54
2018-11-12T01:54:08.873Z,1008.52
2018-11-12T01:55:08.861Z,1008.51
2018-11-12T01:56:08.850Z,1008.54
2018-11-12T01:57:08.840Z,1008.52
2018-11-12T01:58:08.834Z,1008.53
2018-11-12T01:59:08.826Z,1008.53
2018-11-12T02:00:08.823Z,1008.56
2018-11-12T02:01:08.817Z,1008.54
2018-11-12T02:02:08.809Z,1008.51
2018-11-12T02:03:08.801Z,1008.45
2018-11-12T02:04:08.788Z,1008.46
2018-11-12T02:05:08.780Z,1008.40
2018-11-12T02:06:08.774Z,1008.35
2018-11-12T02:07:08.769Z,1008.36
2018-11-12T02:08:08.762Z,1008.29
2018-11-12T02:09:08.892Z,1008.29
2018-11-12T02:10:08.742Z,1008.19
2018-11-12T02:11:08.736Z,1008.17
2018-11-12T02:12:08.732Z,1008.21
2018-11-12T02:13:08.724Z,1008.19
2018-11-12T02:14:08.715Z,1008.29
2018-11-12T02:15:08.708Z,1008.26
2018-11-12T02:16:08.696Z,1008.22
2018-11-12T02:17:08.688Z,1008.17
2018-11-12T02:18:08.685Z,1008.09
2018-11-12T02:19:08.677Z,1008.12
2018-11-12T02:20:08.668Z,1008.14
2018-11-12T02:21:08.662Z,1008.13
2018-11-12T02:22:08.656Z,1008.14
2018-11-12T02:23:08.648Z,1008.00
2018-11-12T02:24:08.634Z,1008.01
2018-11-12T02:25:08.627Z,1007.96
2018-11-12T02:26:08.624Z,1007.99
2018-11-12T02:27:08.618Z,1008.01
2018-11-12T02:28:08.603Z,1007.96
2018-11-12T02:29:08.649Z,1007.97
2018-11-12T02:30:08.590Z,1008.03
2018-11-12T02:31:08.582Z,1007.99
2018-11-12T02:32:08.598Z,1008.10
2018-11-12T02:33:08.607Z,1008.00
2018-11-12T02:34:08.562Z,1008.00
2018-11-12T02:35:08.554Z,1007.96
2018-11-12T02:36:08.542Z,1007.89
2018-11-12T02:37:08.534Z,1007.94
2018-11-12T02:38:08.528Z,1007.92
2018-11-12T02:39:08.521Z,1007.81
2018-11-12T02:40:08.517Z,1007.82
2018-11-12T02:41:08.508Z,1007.73
2018-11-12T02:42:08.497Z,1007.71
2018-11-12T02:43:08.488Z,1007.64
2018-11-12T02:44:08.489Z,1007.65
2018-11-12T02:45:08.479Z,1007.62
2018-11-12T02:46:08.470Z,1007.70
2018-11-12T02:47:08.463Z,1007.69
2018-11-12T02:48:08.454Z,1007.79
2018-11-12T02:49:08.442Z,1007.78
2018-11-12T02:50:08.434Z,1007.76
2018-11-12T02:51:08.427Z,1007.81
2018-11-12T02:52:08.423Z,1007.84
2018-11-12T02:53:08.416Z,1007.85
2018-11-12T02:54:08.409Z,1007.88
2018-11-12T02:55:08.402Z,1007.87
2018-11-12T02:56:08.388Z,1007.91
2018-11-12T02:57:08.381Z,1007.89
2018-11-12T02:58:08.376Z,1007.91
2018-11-12T02:59:08.370Z,1007.95
2018-11-12T03:00:08.357Z,1007.93
2018-11-12T03:01:08.352Z,1007.88
2018-11-12T03:02:08.342Z,1007.87
2018-11-12T03:03:08.337Z,1007.92
2018-11-12T03:04:08.331Z,1007.96
2018-11-12T03:05:08.324Z,1007.95
2018-11-12T03:06:08.317Z,1008.06
2018-11-12T03:07:08.311Z,1008.07
2018-11-12T03:08:08.296Z,1008.06
2018-11-12T03:09:08.288Z,1008.09
2018-11-12T03:10:08.286Z,1008.14
2018-11-12T03:11:08.273Z,1008.17
2018-11-12T03:12:08.270Z,1008.15
2018-11-12T03:13:08.262Z,1008.16
2018-11-12T03:14:08.250Z,1008.18
2018-11-12T03:15:08.242Z,1008.18
2018-11-12T03:16:08.239Z,1008.14
2018-11-12T03:17:08.231Z,1008.15
2018-11-12T03:18:08.227Z,1008.11
2018-11-12T03:19:08.218Z,1008.10
2018-11-12T03:20:08.204Z,1008.06
2018-11-12T03:21:08.196Z,1008.02
2018-11-12T03:22:08.190Z,1008.09
2018-11-12T03:23:08.182Z,1008.19
2018-11-12T03:24:08.178Z,1008.17
2018-11-12T03:25:08.171Z,1008.21
2018-11-12T03:26:08.162Z,1008.19
2018-11-12T03:27:08.155Z,1008.22
2018-11-12T03:28:08.142Z,1008.14
2018-11-12T03:29:08.134Z,1008.15
2018-11-12T03:30:08.132Z,1008.20
2018-11-12T03:31:08.124Z,1008.14
2018-11-12T03:32:08.112Z,1008.14
2018-11-12T03:33:08.105Z,1008.08
2018-11-12T03:34:08.097Z,1008.12
2018-11-12T03:35:08.090Z,1008.08
2018-11-12T03:36:08.089Z,1008.16
2018-11-12T03:37:08.079Z,1008.14
2018-11-12T03:38:08.072Z,1008.11
2018-11-12T03:39:08.064Z,1008.01
2018-11-12T03:40:08.050Z,1008.08
2018-11-12T03:41:08.045Z,1008.09
2018-11-12T03:42:08.035Z,1008.12
2018-11-12T03:43:08.027Z,1008.16
2018-11-12T03:44:08.024Z,1008.22
2018-11-12T03:45:08.016Z,1008.16
2018-11-12T03:46:08.004Z,1008.22
2018-11-12T03:47:07.997Z,1008.20
2018-11-12T03:48:07.992Z,1008.05
2018-11-12T03:49:07.986Z,1008.04
2018-11-12T03:50:07.983Z,1008.02
2018-11-12T03:51:07.972Z,1008.01
2018-11-12T03:52:07.961Z,1008.00
2018-11-12T03:53:07.952Z,1007.98
2018-11-12T03:54:07.953Z,1007.96
2018-11-12T03:55:07.936Z,1007.89
2018-11-12T03:56:07.932Z,1007.94
2018-11-12T03:57:07.926Z,1007.93
2018-11-12T03:58:07.916Z,1007.94
2018-11-12T03:59:07.910Z,1007.93
2018-11-12T04:00:07.960Z,1007.93
2018-11-12T04:01:07.889Z,1007.92
2018-11-12T04:02:07.892Z,1007.98
2018-11-12T04:03:07.882Z,1007.98
2018-11-12T04:04:07.867Z,1007.99
2018-11-12T04:05:07.871Z,1008.06
2018-11-12T04:06:07.851Z,1008.04
2018-11-12T04:07:07.844Z,1008.05
2018-11-12T04:08:07.839Z,1008.03
2018-11-12T04:09:07.833Z,1008.05
2018-11-12T04:10:07.826Z,1008.00
2018-11-12T04:11:07.818Z,1007.93
2018-11-12T04:12:07.808Z,1007.97
2018-11-12T04:13:07.798Z,1007.98
2018-11-12T04:14:07.790Z,1007.99
2018-11-12T04:15:07.784Z,1007.96
2018-11-12T04:16:07.779Z,1007.97
2018-11-12T04:17:07.773Z,1007.92
2018-11-12T04:18:07.760Z,1007.82
2018-11-12T04:19:07.753Z,1007.84
2018-11-12T04:20:07.750Z,1007.83
2018-11-12T04:21:07.743Z,1007.80
2018-11-12T04:22:07.734Z,1007.78
2018-11-12T04:23:07.727Z,1007.83
2018-11-12T04:24:07.717Z,1007.85
2018-11-12T04:25:07.708Z,1007.87
2018-11-12T04:26:07.701Z,1007.90
2018-11-12T04:27:07.694Z,1007.91
2018-11-12T04:28:07.690Z,1007.93
2018-11-12T04:29:07.681Z,1007.91
2018-11-12T04:30:07.676Z,1007.91
2018-11-12T04:31:07.669Z,1007.90
2018-11-12T04:32:07.661Z,1007.89
2018-11-12T04:33:07.656Z,1007.86
2018-11-12T04:34:07.646Z,1007.86
2018-11-12T04:35:07.637Z,1007.86
2018-11-12T04:36:07.625Z,1007.92
2018-11-12T04:37:07.618Z,1007.97
2018-11-12T04:38:07.610Z,1007.98
2018-11-12T04:39:07.602Z,1008.00
2018-11-12T04:40:07.599Z,1007.99
2018-11-12T04:41:07.592Z,1007.94
2018-11-12T04:42:07.585Z,1007.86
2018-11-12T04:43:07.576Z,1007.82
2018-11-12T04:44:07.565Z,1007.82
2018-11-12T04:45:07.561Z,1007.77
2018-11-12T04:46:07.550Z,1007.76
2018-11-12T04:47:07.544Z,1007.77
2018-11-12T04:48:07.540Z,1007.80
2018-11-12T04:49:07.533Z,1007.79
2018-11-12T04:50:07.521Z,1007.84
2018-11-12T04:51:07.513Z,1007.92
2018-11-12T04:52:07.513Z,1007.89
2018-11-12T04:53:07.502Z,1007.85
2018-11-12T04:54:07.495Z,1007.92
2018-11-12T04:55:07.552Z,1007.97
2018-11-12T04:56:07.475Z,1007.99
2018-11-12T04:57:07.473Z,1008.01
2018-11-12T04:58:07.467Z,1008.06
2018-11-12T04:59:07.478Z,1008.02
2018-11-12T05:00:07.450Z,1008.04
2018-11-12T05:01:07.445Z,1008.05
2018-11-12T05:02:07.632Z,1008.02
2018-11-12T05:03:07.428Z,1008.03
2018-11-12T05:04:07.419Z,1008.04
2018-11-12T05:05:07.411Z,1007.99
2018-11-12T05:06:07.408Z,1008.01
2018-11-12T05:07:07.400Z,1008.04
2018-11-12T05:08:07.394Z,1007.99
2018-11-12T05:09:07.385Z,1007.88
2018-11-12T05:10:07.382Z,1007.82
2018-11-12T05:11:07.365Z,1007.79
2018-11-12T05:12:07.363Z,1007.80
2018-11-12T05:13:07.358Z,1007.76
2018-11-12T05:14:07.353Z,1007.84
2018-11-12T05:15:07.359Z,1007.82
2018-11-12T05:16:07.331Z,1007.90
2018-11-12T05:17:07.325Z,1007.89
2018-11-12T05:18:07.314Z,1007.93
2018-11-12T05:19:07.306Z,1007.90
2018-11-12T05:20:07.303Z,1007.89
2018-11-12T05:21:07.298Z,1007.88
2018-11-12T05:22:07.286Z,1007.83
2018-11-12T05:23:07.277Z,1007.80
2018-11-12T05:24:07.273Z,1007.80
2018-11-12T05:25:07.265Z,1007.83
2018-11-12T05:26:07.260Z,1007.83
2018-11-12T05:27:07.254Z,1007.86
2018-11-12T05:28:07.238Z,1007.90
2018-11-12T05:29:07.231Z,1007.88
2018-11-12T05:30:07.228Z,1007.89
2018-11-12T05:31:07.218Z,1007.86
2018-11-12T05:32:07.213Z,1007.84
2018-11-12T05:33:07.213Z,1007.82
2018-11-12T05:34:07.201Z,1007.81
2018-11-12T05:35:07.192Z,1007.77
2018-11-12T05:36:07.178Z,1007.83
2018-11-12T05:37:07.171Z,1007.84
2018-11-12T05:38:07.198Z,1007.84
2018-11-12T05:39:07.164Z,1007.92
2018-11-12T05:40:07.149Z,1007.84
2018-11-12T05:41:07.142Z,1007.78
2018-11-12T05:42:07.136Z,1007.75
2018-11-12T05:43:07.128Z,1007.72
2018-11-12T05:44:07.125Z,1007.71
2018-11-12T05:45:07.170Z,1007.72
2018-11-12T05:46:07.110Z,1007.67
2018-11-12T05:47:07.103Z,1007.70
2018-11-12T05:48:07.090Z,1007.72
2018-11-12T05:49:07.083Z,1007.76
2018-11-12T05:50:07.077Z,1007.69
2018-11-12T05:51:07.068Z,1007.74
2018-11-12T05:52:07.070Z,1007.80
2018-11-12T05:53:07.057Z,1007.84
2018-11-12T05:54:07.049Z,1007.88
2018-11-12T05:55:07.037Z,1007.86
2018-11-12T05:56:07.034Z,1007.86
2018-11-12T05:57:07.026Z,1007.83
2018-11-12T05:58:07.019Z,1007.89
2018-11-12T05:59:07.116Z,1007.79
2018-11-12T06:00:07.002Z,1007.77
2018-11-12T06:01:06.992Z,1007.86
2018-11-12T06:02:06.988Z,1007.88
2018-11-12T06:03:06.982Z,1007.88
2018-11-12T06:04:06.969Z,1007.84
2018-11-12T06:05:06.961Z,1007.82
2018-11-12T06:06:06.954Z,1007.85
2018-11-12T06:07:06.946Z,1007.91
2018-11-12T06:08:06.943Z,1007.97
2018-11-12T06:09:06.936Z,1007.97
2018-11-12T06:10:06.923Z,1007.91
2018-11-12T06:11:06.917Z,1007.88
2018-11-12T06:12:06.914Z,1007.85
2018-11-12T06:13:06.960Z,1007.88
2018-11-12T06:14:06.900Z,1007.91
2018-11-12T06:15:06.889Z,1007.91
2018-11-12T06:16:06.877Z,1007.99
2018-11-12T06:17:06.869Z,1007.96
2018-11-12T06:18:06.898Z,1007.93
2018-11-12T06:19:06.854Z,1007.88
2018-11-12T06:20:06.851Z,1007.91
2018-11-12T06:21:06.843Z,1007.94
2018-11-12T06:22:06.839Z,1008.00
2018-11-12T06:23:06.829Z,1008.14
2018-11-12T06:24:06.816Z,1008.19
2018-11-12T06:25:06.808Z,1008.22
2018-11-12T06:26:06.806Z,1008.25
2018-11-12T06:27:06.798Z,1008.19
2018-11-12T06:28:06.786Z,1008.19
2018-11-12T06:29:06.778Z,1008.14
2018-11-12T06:30:06.771Z,1008.15
2018-11-12T06:31:06.800Z,1008.19
2018-11-12T06:32:06.761Z,1008.20
2018-11-12T06:33:06.751Z,1008.24
2018-11-12T06:34:06.745Z,1008.26
2018-11-12T06:35:06.736Z,1008.20
2018-11-12T06:36:06.724Z,1008.19
2018-11-12T06:37:06.717Z,1008.15
2018-11-12T06:38:06.709Z,1008.15
2018-11-12T06:39:06.704Z,1008.15
2018-11-12T06:40:06.700Z,1008.13
2018-11-12T06:41:06.692Z,1008.23
2018-11-12T06:42:06.679Z,1008.29
2018-11-12T06:43:06.710Z,1008.33
2018-11-12T06:44:06.668Z,1008.34
2018-11-12T06:45:06.661Z,1008.30
2018-11-12T06:46:06.653Z,1008.28
2018-11-12T06:47:06.647Z,1008.26
2018-11-12T06:48:06.633Z,1008.26
2018-11-12T06:49:06.627Z,1008.17
2018-11-12T06:50:06.618Z,1008.13
2018-11-12T06:51:06.611Z,1008.06
2018-11-12T06:52:06.609Z,1008.05
2018-11-12T06:53:06.708Z,1008.07
2018-11-12T06:54:06.595Z,1008.04
2018-11-12T06:55:06.587Z,1008.02
2018-11-12T06:56:06.576Z,1008.00
2018-11-12T06:57:06.567Z,1008.03
2018-11-12T06:58:06.566Z,1008.00
2018-11-12T06:59:06.557Z,1007.99
2018-11-12T07:00:06.549Z,1007.98
2018-11-12T07:01:06.646Z,1007.98
2018-11-12T07:02:06.528Z,1008.02
2018-11-12T07:03:06.524Z,1008.02
2018-11-12T07:04:06.518Z,1008.06
2018-11-12T07:05:06.521Z,1008.04
2018-11-12T07:06:06.503Z,1008.00
2018-11-12T07:07:06.605Z,1007.97
2018-11-12T07:08:06.482Z,1007.91
2018-11-12T07:09:06.476Z,1007.87
2018-11-12T07:10:06.472Z,1007.85
2018-11-12T07:11:06.460Z,1007.89
2018-11-12T07:12:06.456Z,1007.85
2018-11-12T07:13:06.470Z,1007.84
2018-11-12T07:14:06.438Z,1007.84
2018-11-12T07:15:06.430Z,1007.87
2018-11-12T07:16:06.425Z,1007.85
2018-11-12T07:17:06.418Z,1007.88
2018-11-12T07:18:06.412Z,1007.90
2018-11-12T07:19:06.405Z,1007.87
2018-11-12T07:20:06.390Z,1007.86
2018-11-12T07:21:06.383Z,1007.80
2018-11-12T07:22:06.376Z,1007.91
2018-11-12T07:23:06.368Z,1007.84
2018-11-12T07:24:06.365Z,1007.84
2018-11-12T07:25:06.409Z,1007.82
2018-11-12T07:26:06.350Z,1007.82
2018-11-12T07:27:06.343Z,1007.78
2018-11-12T07:28:06.329Z,1007.74
2018-11-12T07:29:06.321Z,1007.69
2018-11-12T07:30:06.320Z,1007.65
2018-11-12T07:31:06.373Z,1007.69
2018-11-12T07:32:06.298Z,1007.66
2018-11-12T07:33:06.292Z,1007.66
2018-11-12T07:34:06.290Z,1007.63
2018-11-12T07:35:06.277Z,1007.54
2018-11-12T07:36:06.274Z,1007.56
2018-11-12T07:37:06.266Z,1007.55
2018-11-12T07:38:06.259Z,1007.51
2018-11-12T07:39:06.252Z,1007.50
2018-11-12T07:40:06.239Z,1007.44
2018-11-12T07:41:06.231Z,1007.43
2018-11-12T07:42:06.383Z,1007.42
2018-11-12T07:43:06.223Z,1007.39
2018-11-12T07:44:06.212Z,1007.37
2018-11-12T07:45:06.205Z,1007.44
2018-11-12T07:46:06.193Z,1007.48
2018-11-12T07:47:06.185Z,1007.47
2018-11-12T07:48:06.183Z,1007.49
2018-11-12T07:49:06.174Z,1007.54
2018-11-12T07:50:06.167Z,1007.50
2018-11-12T07:51:06.187Z,1007.57
2018-11-12T07:52:06.147Z,1007.57
2018-11-12T07:53:06.139Z,1007.57
2018-11-12T07:54:06.133Z,1007.60
2018-11-12T07:55:06.126Z,1007.60
2018-11-12T07:56:06.142Z,1007.62
2018-11-12T07:57:06.115Z,1007.62
2018-11-12T07:58:06.108Z,1007.69
2018-11-12T07:59:06.098Z,1007.70
2018-11-12T08:00:06.087Z,1007.64
2018-11-12T08:01:06.079Z,1007.66
2018-11-12T08:02:06.079Z,1007.61
2018-11-12T08:03:06.181Z,1007.58
2018-11-12T08:04:06.060Z,1007.53
2018-11-12T08:05:06.050Z,1007.56
2018-11-12T08:06:06.043Z,1007.53
2018-11-12T08:07:06.041Z,1007.57
2018-11-12T08:08:06.034Z,1007.56
2018-11-12T08:09:06.110Z,1007.54
2018-11-12T08:10:06.019Z,1007.57
2018-11-12T08:11:06.011Z,1007.54
2018-11-12T08:12:06.152Z,1007.55
2018-11-12T08:13:05.993Z,1007.55
2018-11-12T08:14:05.985Z,1007.54
2018-11-12T08:15:05.979Z,1007.51
2018-11-12T08:16:05.975Z,1007.49
2018-11-12T08:17:05.970Z,1007.43
2018-11-12T08:18:05.957Z,1007.35
2018-11-12T08:19:05.949Z,1007.34
2018-11-12T08:20:05.946Z,1007.49
2018-11-12T08:21:05.943Z,1007.52
2018-11-12T08:22:05.931Z,1007.48
2018-11-12T08:23:05.930Z,1007.53
2018-11-12T08:24:06.012Z,1007.47
2018-11-12T08:25:05.908Z,1007.39
2018-11-12T08:26:05.897Z,1007.34
2018-11-12T08:27:05.891Z,1007.25
2018-11-12T08:28:05.891Z,1007.25
2018-11-12T08:29:05.881Z,1007.28
2018-11-12T08:30:05.935Z,1007.30
2018-11-12T08:31:05.867Z,1007.34
2018-11-12T08:32:05.853Z,1007.33
2018-11-12T08:33:05.920Z,1007.30
2018-11-12T08:34:05.845Z,1007.26
2018-11-12T08:35:05.838Z,1007.21
2018-11-12T08:36:05.887Z,1007.17
2018-11-12T08:37:05.818Z,1007.13
2018-11-12T08:38:05.812Z,1007.17
2018-11-12T08:39:05.841Z,1007.25
2018-11-12T08:40:05.985Z,1007.31
2018-11-12T08:41:05.893Z,1007.35
2018-11-12T08:42:05.787Z,1007.32
2018-11-12T08:43:05.783Z,1007.28
2018-11-12T08:44:05.768Z,1007.25
2018-11-12T08:45:05.766Z,1007.25
2018-11-12T08:46:05.775Z,1007.24
2018-11-12T08:47:05.749Z,1007.16
2018-11-12T08:48:05.747Z,1007.20
2018-11-12T08:49:05.892Z,1007.20
2018-11-12T08:50:05.821Z,1007.28
2018-11-12T08:51:05.732Z,1007.30
2018-11-12T08:52:05.761Z,1007.32
2018-11-12T08:53:05.714Z,1007.33
2018-11-12T08:54:05.706Z,1007.32
2018-11-12T08:55:05.876Z,1007.26
2018-11-12T08:56:05.759Z,1007.23
2018-11-12T08:57:05.683Z,1007.25
2018-11-12T08:58:05.714Z,1007.24
2018-11-12T08:59:05.700Z,1007.19
2018-11-12T09:00:05.669Z,1007.14
2018-11-12T09:01:05.662Z,1007.16
2018-11-12T09:02:05.657Z,1007.11
2018-11-12T09:03:05.655Z,1007.14
2018-11-12T09:04:05.736Z,1007.16
2018-11-12T09:05:05.634Z,1007.12
2018-11-12T09:06:05.813Z,1007.19
2018-11-12T09:07:05.676Z,1007.16
2018-11-12T09:08:05.616Z,1007.17
2018-11-12T09:09:05.612Z,1007.17
2018-11-12T09:10:05.719Z,1007.16
2018-11-12T09:11:05.601Z,1007.20
2018-11-12T09:12:05.597Z,1007.18
2018-11-12T09:13:05.592Z,1007.23
2018-11-12T09:14:05.588Z,1007.26
2018-11-12T09:15:05.583Z,1007.20
2018-11-12T09:16:05.572Z,1007.24
2018-11-12T09:17:05.565Z,1007.23
2018-11-12T09:18:05.561Z,1007.24
2018-11-12T09:19:05.555Z,1007.24
2018-11-12T09:20:05.552Z,1007.26
2018-11-12T09:21:05.548Z,1007.34
2018-11-12T09:22:05.538Z,1007.35
2018-11-12T09:23:05.532Z,1007.33
2018-11-12T09:24:05.602Z,1007.35
2018-11-12T09:25:05.524Z,1007.38
2018-11-12T09:26:05.521Z,1007.37
2018-11-12T09:27:05.516Z,1007.36
2018-11-12T09:28:05.503Z,1007.33
2018-11-12T09:29:05.500Z,1007.37
2018-11-12T09:30:05.495Z,1007.37
2018-11-12T09:31:06.511Z,1007.36
2018-11-12T09:32:05.487Z,1007.41
2018-11-12T09:33:05.482Z,1007.42
2018-11-12T09:34:05.477Z,1007.42
2018-11-12T09:35:05.472Z,1007.37
2018-11-12T09:36:05.461Z,1007.40
2018-11-12T09:37:05.456Z,1007.42
2018-11-12T09:38:05.496Z,1007.37
2018-11-12T09:39:05.451Z,1007.37
2018-11-12T09:40:05.440Z,1007.38
2018-11-12T09:41:05.437Z,1007.34
2018-11-12T09:42:05.431Z,1007.35
2018-11-12T09:43:05.452Z,1007.41
2018-11-12T09:44:05.468Z,1007.42
2018-11-12T09:45:05.421Z,1007.41
2018-11-12T09:46:05.417Z,1007.37
2018-11-12T09:47:05.409Z,1007.33
2018-11-12T09:48:05.398Z,1007.32
2018-11-12T09:49:05.427Z,1007.29
2018-11-12T09:50:05.389Z,1007.29
2018-11-12T09:51:05.383Z,1007.27
2018-11-12T09:52:05.387Z,1007.27
2018-11-12T09:53:05.377Z,1007.29
2018-11-12T09:54:05.480Z,1007.32
2018-11-12T09:55:05.364Z,1007.30
2018-11-12T09:56:05.362Z,1007.37
2018-11-12T09:57:05.356Z,1007.35
2018-11-12T09:58:05.356Z,1007.35
2018-11-12T09:59:05.358Z,1007.40
2018-11-12T10:00:05.382Z,1007.37
2018-11-12T10:01:05.615Z,1007.37
2018-11-12T10:02:06.014Z,1007.29
2018-11-12T10:03:06.059Z,1007.30
2018-11-12T10:04:06.274Z,1007.30
2018-11-12T10:05:07.149Z,1007.34
2018-11-12T10:06:06.728Z,1007.34
2018-11-12T10:07:07.162Z,1007.37
2018-11-12T10:08:07.699Z,1007.42
2018-11-12T10:09:07.372Z,1007.44
2018-11-12T10:10:07.830Z,1007.41
2018-11-12T10:11:07.755Z,1007.41
2018-11-12T10:12:07.380Z,1007.37
2018-11-12T10:13:08.030Z,1007.45
2018-11-12T10:14:07.389Z,1007.43
2018-11-12T10:15:08.720Z,1007.47
2018-11-12T10:16:09.021Z,1007.43
2018-11-12T10:17:07.903Z,1007.48
2018-11-12T10:18:09.208Z,1007.53
2018-11-12T10:19:05.289Z,1007.48
2018-11-12T10:20:05.241Z,1007.51
2018-11-12T10:21:05.240Z,1007.51
2018-11-12T10:22:05.232Z,1007.54
2018-11-12T10:23:05.226Z,1007.50
2018-11-12T10:24:05.224Z,1007.48
2018-11-12T10:25:05.220Z,1007.42
2018-11-12T10:26:05.212Z,1007.39
2018-11-12T10:27:05.237Z,1007.44
2018-11-12T10:28:05.207Z,1007.42
2018-11-12T10:29:05.203Z,1007.51
2018-11-12T10:30:05.199Z,1007.44
2018-11-12T10:31:05.194Z,1007.43
2018-11-12T10:32:05.184Z,1007.40
2018-11-12T10:33:05.182Z,1007.42
2018-11-12T10:34:05.192Z,1007.39
2018-11-12T10:35:05.170Z,1007.46
2018-11-12T10:36:05.169Z,1007.41
2018-11-12T10:37:05.165Z,1007.40
2018-11-12T10:38:05.160Z,1007.40
2018-11-12T10:39:05.158Z,1007.43
2018-11-12T10:40:05.160Z,1007.43
2018-11-12T10:41:05.144Z,1007.46
2018-11-12T10:42:05.140Z,1007.42
2018-11-12T10:43:05.136Z,1007.40
2018-11-12T10:44:05.124Z,1007.44
2018-11-12T10:45:05.123Z,1007.48
2018-11-12T10:46:05.118Z,1007.48
2018-11-12T10:47:05.112Z,1007.45
2018-11-12T10:48:05.209Z,1007.47
2018-11-12T10:49:05.107Z,1007.46
2018-11-12T10:50:05.102Z,1007.51
2018-11-12T10:51:05.421Z,1007.52
2018-11-12T10:52:05.088Z,1007.52
2018-11-12T10:53:05.082Z,1007.52
2018-11-12T10:54:05.355Z,1007.59
2018-11-12T10:55:05.629Z,1007.55
2018-11-12T10:56:05.164Z,1007.61
2018-11-12T10:57:05.069Z,1007.59
2018-11-12T10:58:05.058Z,1007.61
2018-11-12T10:59:05.055Z,1007.65
2018-11-12T11:00:05.053Z,1007.67
2018-11-12T11:01:05.049Z,1007.73
2018-11-12T11:02:05.046Z,1007.72
2018-11-12T11:03:05.044Z,1007.67
2018-11-12T11:04:05.032Z,1007.70
2018-11-12T11:05:05.030Z,1007.74
2018-11-12T11:06:05.023Z,1007.75
2018-11-12T11:07:05.019Z,1007.78
2018-11-12T11:08:05.052Z,1007.77
2018-11-12T11:09:05.017Z,1007.76
2018-11-12T11:10:05.011Z,1007.80
2018-11-12T11:11:05.006Z,1007.82
2018-11-12T11:12:04.998Z,1007.78
2018-11-12T11:13:04.993Z,1007.76
2018-11-12T11:14:04.997Z,1007.75
2018-11-12T11:15:04.998Z,1007.71
2018-11-12T11:16:04.983Z,1007.67
2018-11-12T11:17:04.977Z,1007.68
2018-11-12T11:18:04.973Z,1007.64
2018-11-12T11:19:04.969Z,1007.57
2018-11-12T11:20:04.970Z,1007.52
2018-11-12T11:21:05.016Z,1007.52
2018-11-12T11:22:04.961Z,1007.48
2018-11-12T11:23:04.957Z,1007.47
2018-11-12T11:24:04.947Z,1007.50
2018-11-12T11:25:04.944Z,1007.59
2018-11-12T11:26:04.940Z,1007.62
2018-11-12T11:27:04.937Z,1007.60
2018-11-12T11:28:04.939Z,1007.61
2018-11-12T11:29:04.933Z,1007.65
2018-11-12T11:30:04.925Z,1007.68
2018-11-12T11:31:04.921Z,1007.68
2018-11-12T11:32:04.923Z,1007.68
2018-11-12T11:33:04.919Z,1007.73
2018-11-12T11:34:04.918Z,1007.69
2018-11-12T11:35:04.911Z,1007.63
2018-11-12T11:36:04.901Z,1007.63
2018-11-12T11:37:04.899Z,1007.59
2018-11-12T11:38:04.894Z,1007.59
2018-11-12T11:39:04.895Z,1007.51
2018-11-12T11:40:04.910Z,1007.51
2018-11-12T11:41:04.888Z,1007.51
2018-11-12T11:42:04.885Z,1007.44
2018-11-12T11:43:04.882Z,1007.46
2018-11-12T11:44:04.876Z,1007.52
2018-11-12T11:45:04.870Z,1007.58
2018-11-12T11:46:04.876Z,1007.56
2018-11-12T11:47:04.868Z,1007.56
2018-11-12T11:48:04.904Z,1007.56
2018-11-12T11:49:04.855Z,1007.55
2018-11-12T11:50:04.875Z,1007.61
2018-11-12T11:51:04.851Z,1007.67
2018-11-12T11:52:04.850Z,1007.67
2018-11-12T11:53:04.850Z,1007.65
2018-11-12T11:54:04.844Z,1007.68
2018-11-12T11:55:04.841Z,1007.65
2018-11-12T11:56:04.834Z,1007.71
2018-11-12T11:57:04.842Z,1007.74
2018-11-12T11:58:04.827Z,1007.71
2018-11-12T11:59:04.824Z,1007.73
2018-11-12T12:00:04.829Z,1007.71
2018-11-12T12:01:04.865Z,1007.71
2018-11-12T12:02:04.818Z,1007.77
2018-11-12T12:03:04.861Z,1007.74
2018-11-12T12:04:04.812Z,1007.78
2018-11-12T12:05:04.810Z,1007.77